sensor_id;sensor_type;location;lat;lon;timestamp;P1;durP1;ratioP1;P2;durP2;ratioP2
44137;SDS011;29800;55.942;37.314;2023-04-25T00:00:44;10.77;;;5.20;;
44137;SDS011;29800;55.942;37.314;2023-04-25T00:03:10;12.23;;;5.30;;
44137;SDS011;29800;55.942;37.314;2023-04-25T00:05:37;12.45;;;5.10;;
44137;SDS011;29800;55.942;37.314;2023-04-25T00:08:04;9.45;;;4.80;;
44137;SDS011;29800;55.942;37.314;2023-04-25T00:10:32;10.50;;;4.38;;
44137;SDS011;29800;55.942;37.314;2023-04-25T00:12:59;11.68;;;4.57;;
44137;SDS011;29800;55.942;37.314;2023-04-25T00:15:28;7.07;;;4.10;;
44137;SDS011;29800;55.942;37.314;2023-04-25T00:17:56;11.40;;;4.38;;
44137;SDS011;29800;55.942;37.314;2023-04-25T00:20:22;10.80;;;4.40;;
44137;SDS011;29800;55.942;37.314;2023-04-25T00:22:50;11.05;;;4.45;;
44137;SDS011;29800;55.942;37.314;2023-04-25T00:25:18;9.75;;;4.50;;
44137;SDS011;29800;55.942;37.314;2023-04-25T00:27:46;10.55;;;4.45;;
44137;SDS011;29800;55.942;37.314;2023-04-25T00:30:12;11.05;;;4.47;;
44137;SDS011;29800;55.942;37.314;2023-04-25T00:32:39;8.15;;;4.00;;
44137;SDS011;29800;55.942;37.314;2023-04-25T00:35:06;10.68;;;4.63;;
44137;SDS011;29800;55.942;37.314;2023-04-25T00:37:32;12.98;;;4.60;;
44137;SDS011;29800;55.942;37.314;2023-04-25T00:39:59;8.55;;;4.63;;
44137;SDS011;29800;55.942;37.314;2023-04-25T00:42:25;11.90;;;4.43;;
44137;SDS011;29800;55.942;37.314;2023-04-25T00:44:52;8.57;;;4.63;;
44137;SDS011;29800;55.942;37.314;2023-04-25T00:47:19;14.48;;;4.68;;
44137;SDS011;29800;55.942;37.314;2023-04-25T00:49:45;13.63;;;4.32;;
44137;SDS011;29800;55.942;37.314;2023-04-25T00:52:11;10.60;;;4.22;;
44137;SDS011;29800;55.942;37.314;2023-04-25T00:54:38;12.48;;;4.40;;
44137;SDS011;29800;55.942;37.314;2023-04-25T00:57:05;9.70;;;4.45;;
44137;SDS011;29800;55.942;37.314;2023-04-25T00:59:31;14.30;;;4.82;;
44137;SDS011;29800;55.942;37.314;2023-04-25T01:01:59;14.07;;;5.28;;
44137;SDS011;29800;55.942;37.314;2023-04-25T01:04:26;15.15;;;4.68;;
44137;SDS011;29800;55.942;37.314;2023-04-25T01:06:54;9.57;;;4.28;;
44137;SDS011;29800;55.942;37.314;2023-04-25T01:09:21;9.48;;;4.53;;
44137;SDS011;29800;55.942;37.314;2023-04-25T01:11:49;11.95;;;4.25;;
44137;SDS011;29800;55.942;37.314;2023-04-25T01:14:16;9.57;;;4.30;;
44137;SDS011;29800;55.942;37.314;2023-04-25T01:16:42;12.27;;;4.45;;
44137;SDS011;29800;55.942;37.314;2023-04-25T01:19:10;10.35;;;4.53;;
44137;SDS011;29800;55.942;37.314;2023-04-25T01:21:37;12.40;;;4.70;;
44137;SDS011;29800;55.942;37.314;2023-04-25T01:24:04;9.20;;;4.55;;
44137;SDS011;29800;55.942;37.314;2023-04-25T01:26:32;10.70;;;4.47;;
44137;SDS011;29800;55.942;37.314;2023-04-25T01:28:59;14.48;;;4.80;;
44137;SDS011;29800;55.942;37.314;2023-04-25T01:31:26;15.98;;;4.97;;
44137;SDS011;29800;55.942;37.314;2023-04-25T01:33:54;12.32;;;4.90;;
44137;SDS011;29800;55.942;37.314;2023-04-25T01:36:20;13.20;;;4.65;;
44137;SDS011;29800;55.942;37.314;2023-04-25T01:38:47;11.98;;;4.85;;
44137;SDS011;29800;55.942;37.314;2023-04-25T01:41:14;13.20;;;5.10;;
44137;SDS011;29800;55.942;37.314;2023-04-25T01:43:42;10.10;;;4.65;;
44137;SDS011;29800;55.942;37.314;2023-04-25T01:46:09;12.55;;;4.47;;
44137;SDS011;29800;55.942;37.314;2023-04-25T01:48:37;10.27;;;4.18;;
44137;SDS011;29800;55.942;37.314;2023-04-25T01:51:03;13.30;;;5.50;;
44137;SDS011;29800;55.942;37.314;2023-04-25T01:53:30;12.23;;;4.68;;
44137;SDS011;29800;55.942;37.314;2023-04-25T01:55:57;10.77;;;4.00;;
44137;SDS011;29800;55.942;37.314;2023-04-25T01:58:26;12.18;;;5.00;;
44137;SDS011;29800;55.942;37.314;2023-04-25T02:01:12;9.23;;;4.05;;
44137;SDS011;29800;55.942;37.314;2023-04-25T02:03:45;12.82;;;4.63;;
44137;SDS011;29800;55.942;37.314;2023-04-25T02:06:22;11.13;;;4.25;;
44137;SDS011;29800;55.942;37.314;2023-04-25T02:08:51;10.90;;;4.90;;
44137;SDS011;29800;55.942;37.314;2023-04-25T02:11:18;9.57;;;5.10;;
44137;SDS011;29800;55.942;37.314;2023-04-25T02:14:00;16.92;;;5.38;;
44137;SDS011;29800;55.942;37.314;2023-04-25T02:17:01;14.85;;;4.88;;
44137;SDS011;29800;55.942;37.314;2023-04-25T02:19:30;9.63;;;4.50;;
44137;SDS011;29800;55.942;37.314;2023-04-25T02:21:56;15.32;;;5.05;;
44137;SDS011;29800;55.942;37.314;2023-04-25T02:24:24;13.57;;;5.00;;
44137;SDS011;29800;55.942;37.314;2023-04-25T02:26:50;10.00;;;4.90;;
44137;SDS011;29800;55.942;37.314;2023-04-25T02:29:17;12.38;;;4.80;;
44137;SDS011;29800;55.942;37.314;2023-04-25T02:31:43;11.70;;;5.18;;
44137;SDS011;29800;55.942;37.314;2023-04-25T02:34:09;15.50;;;4.90;;
44137;SDS011;29800;55.942;37.314;2023-04-25T02:36:37;13.82;;;4.65;;
44137;SDS011;29800;55.942;37.314;2023-04-25T02:39:03;12.88;;;4.45;;
44137;SDS011;29800;55.942;37.314;2023-04-25T02:41:30;9.00;;;4.63;;
44137;SDS011;29800;55.942;37.314;2023-04-25T02:43:56;13.07;;;4.10;;
44137;SDS011;29800;55.942;37.314;2023-04-25T02:46:23;12.85;;;4.55;;
44137;SDS011;29800;55.942;37.314;2023-04-25T02:48:49;13.73;;;4.55;;
44137;SDS011;29800;55.942;37.314;2023-04-25T02:51:15;12.68;;;4.32;;
44137;SDS011;29800;55.942;37.314;2023-04-25T02:53:42;11.70;;;4.72;;
44137;SDS011;29800;55.942;37.314;2023-04-25T02:56:09;14.30;;;4.45;;
44137;SDS011;29800;55.942;37.314;2023-04-25T02:58:36;12.07;;;4.85;;
44137;SDS011;29800;55.942;37.314;2023-04-25T03:01:02;12.32;;;4.30;;
44137;SDS011;29800;55.942;37.314;2023-04-25T03:03:29;13.73;;;4.80;;
44137;SDS011;29800;55.942;37.314;2023-04-25T03:05:55;11.75;;;4.30;;
44137;SDS011;29800;55.942;37.314;2023-04-25T03:08:26;9.10;;;4.88;;
44137;SDS011;29800;55.942;37.314;2023-04-25T03:10:59;11.07;;;4.50;;
44137;SDS011;29800;55.942;37.314;2023-04-25T03:13:26;11.45;;;4.43;;
44137;SDS011;29800;55.942;37.314;2023-04-25T03:15:53;12.25;;;4.65;;
44137;SDS011;29800;55.942;37.314;2023-04-25T03:18:21;10.48;;;4.32;;
44137;SDS011;29800;55.942;37.314;2023-04-25T03:20:47;11.73;;;4.75;;
44137;SDS011;29800;55.942;37.314;2023-04-25T03:23:13;12.75;;;4.45;;
44137;SDS011;29800;55.942;37.314;2023-04-25T03:25:41;11.75;;;4.68;;
44137;SDS011;29800;55.942;37.314;2023-04-25T03:28:08;8.90;;;4.40;;
44137;SDS011;29800;55.942;37.314;2023-04-25T03:30:35;10.50;;;4.63;;
44137;SDS011;29800;55.942;37.314;2023-04-25T03:33:01;14.13;;;4.90;;
44137;SDS011;29800;55.942;37.314;2023-04-25T03:35:28;9.90;;;4.55;;
44137;SDS011;29800;55.942;37.314;2023-04-25T03:37:54;8.77;;;4.50;;
44137;SDS011;29800;55.942;37.314;2023-04-25T03:40:26;12.02;;;4.70;;
44137;SDS011;29800;55.942;37.314;2023-04-25T03:43:20;14.45;;;4.53;;
44137;SDS011;29800;55.942;37.314;2023-04-25T03:45:52;8.90;;;4.00;;
44137;SDS011;29800;55.942;37.314;2023-04-25T03:48:21;13.70;;;4.40;;
44137;SDS011;29800;55.942;37.314;2023-04-25T03:50:50;14.07;;;4.25;;
44137;SDS011;29800;55.942;37.314;2023-04-25T03:53:17;10.88;;;3.83;;
44137;SDS011;29800;55.942;37.314;2023-04-25T03:56:03;11.82;;;4.72;;
44137;SDS011;29800;55.942;37.314;2023-04-25T03:58:32;23.92;;;7.38;;
44137;SDS011;29800;55.942;37.314;2023-04-25T04:00:59;18.55;;;6.57;;
44137;SDS011;29800;55.942;37.314;2023-04-25T04:03:26;20.00;;;7.13;;
44137;SDS011;29800;55.942;37.314;2023-04-25T04:05:52;22.75;;;6.20;;
44137;SDS011;29800;55.942;37.314;2023-04-25T04:08:18;14.90;;;5.15;;
44137;SDS011;29800;55.942;37.314;2023-04-25T04:10:45;15.98;;;5.25;;
44137;SDS011;29800;55.942;37.314;2023-04-25T04:13:11;10.00;;;4.25;;
44137;SDS011;29800;55.942;37.314;2023-04-25T04:15:39;22.33;;;5.38;;
44137;SDS011;29800;55.942;37.314;2023-04-25T04:18:06;9.13;;;4.07;;
44137;SDS011;29800;55.942;37.314;2023-04-25T04:20:32;12.38;;;4.40;;
44137;SDS011;29800;55.942;37.314;2023-04-25T04:22:58;13.73;;;4.60;;
44137;SDS011;29800;55.942;37.314;2023-04-25T04:25:25;12.90;;;4.13;;
44137;SDS011;29800;55.942;37.314;2023-04-25T04:28:16;12.05;;;6.38;;
44137;SDS011;29800;55.942;37.314;2023-04-25T04:31:10;15.63;;;6.85;;
44137;SDS011;29800;55.942;37.314;2023-04-25T04:33:37;12.02;;;5.80;;
44137;SDS011;29800;55.942;37.314;2023-04-25T04:36:04;15.68;;;6.07;;
44137;SDS011;29800;55.942;37.314;2023-04-25T04:38:33;10.32;;;5.22;;
44137;SDS011;29800;55.942;37.314;2023-04-25T04:41:02;11.05;;;5.35;;
44137;SDS011;29800;55.942;37.314;2023-04-25T04:43:47;11.65;;;4.57;;
44137;SDS011;29800;55.942;37.314;2023-04-25T04:46:24;13.25;;;4.18;;
44137;SDS011;29800;55.942;37.314;2023-04-25T04:49:25;10.70;;;4.25;;
44137;SDS011;29800;55.942;37.314;2023-04-25T04:52:05;13.35;;;4.05;;
44137;SDS011;29800;55.942;37.314;2023-04-25T04:54:43;10.35;;;4.03;;
44137;SDS011;29800;55.942;37.314;2023-04-25T04:57:28;14.20;;;4.10;;
44137;SDS011;29800;55.942;37.314;2023-04-25T05:00:17;10.35;;;3.92;;
44137;SDS011;29800;55.942;37.314;2023-04-25T05:05:48;5.95;;;3.63;;
44137;SDS011;29800;55.942;37.314;2023-04-25T05:08:37;10.45;;;3.47;;
44137;SDS011;29800;55.942;37.314;2023-04-25T05:11:13;12.13;;;4.00;;
44137;SDS011;29800;55.942;37.314;2023-04-25T05:13:59;16.65;;;3.72;;
44137;SDS011;29800;55.942;37.314;2023-04-25T05:16:46;15.02;;;4.05;;
44137;SDS011;29800;55.942;37.314;2023-04-25T05:19:31;11.25;;;3.75;;
44137;SDS011;29800;55.942;37.314;2023-04-25T05:22:22;9.65;;;3.88;;
44137;SDS011;29800;55.942;37.314;2023-04-25T05:25:08;12.13;;;4.13;;
44137;SDS011;29800;55.942;37.314;2023-04-25T05:27:58;10.63;;;4.80;;
44137;SDS011;29800;55.942;37.314;2023-04-25T05:33:16;9.60;;;4.03;;
44137;SDS011;29800;55.942;37.314;2023-04-25T05:35:44;9.80;;;4.05;;
44137;SDS011;29800;55.942;37.314;2023-04-25T05:38:11;10.25;;;4.00;;
44137;SDS011;29800;55.942;37.314;2023-04-25T05:41:00;8.85;;;4.22;;
44137;SDS011;29800;55.942;37.314;2023-04-25T05:43:45;11.77;;;4.07;;
44137;SDS011;29800;55.942;37.314;2023-04-25T05:46:35;13.95;;;4.20;;
44137;SDS011;29800;55.942;37.314;2023-04-25T05:49:22;15.07;;;4.78;;
44137;SDS011;29800;55.942;37.314;2023-04-25T05:51:52;10.43;;;4.60;;
44137;SDS011;29800;55.942;37.314;2023-04-25T05:56:56;17.75;;;4.63;;
44137;SDS011;29800;55.942;37.314;2023-04-25T05:59:22;14.73;;;4.88;;
44137;SDS011;29800;55.942;37.314;2023-04-25T06:01:49;14.18;;;5.93;;
44137;SDS011;29800;55.942;37.314;2023-04-25T06:04:15;18.20;;;5.88;;
44137;SDS011;29800;55.942;37.314;2023-04-25T06:06:42;21.98;;;6.28;;
44137;SDS011;29800;55.942;37.314;2023-04-25T06:09:08;25.48;;;6.78;;
44137;SDS011;29800;55.942;37.314;2023-04-25T06:11:34;19.90;;;6.43;;
44137;SDS011;29800;55.942;37.314;2023-04-25T06:14:02;18.17;;;5.25;;
44137;SDS011;29800;55.942;37.314;2023-04-25T06:16:31;23.52;;;6.05;;
44137;SDS011;29800;55.942;37.314;2023-04-25T06:18:57;22.35;;;6.18;;
44137;SDS011;29800;55.942;37.314;2023-04-25T06:21:25;20.48;;;6.65;;
44137;SDS011;29800;55.942;37.314;2023-04-25T06:23:51;16.83;;;5.68;;
44137;SDS011;29800;55.942;37.314;2023-04-25T06:26:21;18.42;;;6.85;;
44137;SDS011;29800;55.942;37.314;2023-04-25T06:28:48;18.30;;;5.90;;
44137;SDS011;29800;55.942;37.314;2023-04-25T06:31:14;16.90;;;5.72;;
44137;SDS011;29800;55.942;37.314;2023-04-25T06:33:42;14.30;;;5.95;;
44137;SDS011;29800;55.942;37.314;2023-04-25T06:36:09;16.42;;;6.40;;
44137;SDS011;29800;55.942;37.314;2023-04-25T06:38:37;16.95;;;6.60;;
44137;SDS011;29800;55.942;37.314;2023-04-25T06:41:03;20.25;;;7.63;;
44137;SDS011;29800;55.942;37.314;2023-04-25T06:43:34;16.65;;;7.38;;
44137;SDS011;29800;55.942;37.314;2023-04-25T06:46:23;17.77;;;7.13;;
44137;SDS011;29800;55.942;37.314;2023-04-25T06:48:52;20.55;;;6.60;;
44137;SDS011;29800;55.942;37.314;2023-04-25T06:51:19;14.20;;;6.55;;
44137;SDS011;29800;55.942;37.314;2023-04-25T06:53:45;17.92;;;7.18;;
44137;SDS011;29800;55.942;37.314;2023-04-25T06:56:23;11.90;;;5.97;;
44137;SDS011;29800;55.942;37.314;2023-04-25T06:58:56;14.63;;;5.25;;
44137;SDS011;29800;55.942;37.314;2023-04-25T07:01:28;17.73;;;6.18;;
44137;SDS011;29800;55.942;37.314;2023-04-25T07:03:56;13.07;;;6.47;;
44137;SDS011;29800;55.942;37.314;2023-04-25T07:06:23;11.00;;;5.97;;
44137;SDS011;29800;55.942;37.314;2023-04-25T07:08:52;16.75;;;9.07;;
44137;SDS011;29800;55.942;37.314;2023-04-25T07:11:18;11.48;;;5.15;;
44137;SDS011;29800;55.942;37.314;2023-04-25T07:13:45;16.27;;;7.53;;
44137;SDS011;29800;55.942;37.314;2023-04-25T07:16:11;17.40;;;6.53;;
44137;SDS011;29800;55.942;37.314;2023-04-25T07:18:38;11.80;;;5.18;;
44137;SDS011;29800;55.942;37.314;2023-04-25T07:21:04;10.35;;;5.65;;
44137;SDS011;29800;55.942;37.314;2023-04-25T07:23:33;13.57;;;4.80;;
44137;SDS011;29800;55.942;37.314;2023-04-25T07:26:04;14.35;;;4.90;;
44137;SDS011;29800;55.942;37.314;2023-04-25T07:28:31;7.88;;;3.83;;
44137;SDS011;29800;55.942;37.314;2023-04-25T07:30:57;8.90;;;3.88;;
44137;SDS011;29800;55.942;37.314;2023-04-25T07:33:24;7.10;;;3.28;;
44137;SDS011;29800;55.942;37.314;2023-04-25T07:35:50;9.85;;;3.75;;
44137;SDS011;29800;55.942;37.314;2023-04-25T07:38:18;9.95;;;3.97;;
44137;SDS011;29800;55.942;37.314;2023-04-25T07:40:44;8.68;;;3.10;;
44137;SDS011;29800;55.942;37.314;2023-04-25T07:43:11;7.78;;;3.60;;
44137;SDS011;29800;55.942;37.314;2023-04-25T07:45:53;9.82;;;3.58;;
44137;SDS011;29800;55.942;37.314;2023-04-25T07:48:20;10.57;;;3.50;;
44137;SDS011;29800;55.942;37.314;2023-04-25T07:50:49;12.23;;;3.40;;
44137;SDS011;29800;55.942;37.314;2023-04-25T07:53:16;8.30;;;3.25;;
44137;SDS011;29800;55.942;37.314;2023-04-25T07:55:52;14.02;;;3.60;;
44137;SDS011;29800;55.942;37.314;2023-04-25T07:58:20;31.45;;;8.50;;
44137;SDS011;29800;55.942;37.314;2023-04-25T08:00:50;7.95;;;3.50;;
44137;SDS011;29800;55.942;37.314;2023-04-25T08:03:35;18.83;;;5.35;;
44137;SDS011;29800;55.942;37.314;2023-04-25T08:06:05;9.45;;;3.65;;
44137;SDS011;29800;55.942;37.314;2023-04-25T08:08:36;9.50;;;3.65;;
44137;SDS011;29800;55.942;37.314;2023-04-25T08:11:06;9.18;;;4.00;;
44137;SDS011;29800;55.942;37.314;2023-04-25T08:13:32;12.98;;;3.95;;
44137;SDS011;29800;55.942;37.314;2023-04-25T08:15:59;6.63;;;3.50;;
44137;SDS011;29800;55.942;37.314;2023-04-25T08:18:25;11.35;;;3.50;;
44137;SDS011;29800;55.942;37.314;2023-04-25T08:20:52;8.02;;;3.60;;
44137;SDS011;29800;55.942;37.314;2023-04-25T08:23:18;10.60;;;3.85;;
44137;SDS011;29800;55.942;37.314;2023-04-25T08:25:44;11.80;;;4.25;;
44137;SDS011;29800;55.942;37.314;2023-04-25T08:28:14;11.55;;;4.10;;
44137;SDS011;29800;55.942;37.314;2023-04-25T08:30:41;9.23;;;3.58;;
44137;SDS011;29800;55.942;37.314;2023-04-25T08:33:10;7.13;;;3.60;;
44137;SDS011;29800;55.942;37.314;2023-04-25T08:35:46;11.20;;;4.60;;
44137;SDS011;29800;55.942;37.314;2023-04-25T08:38:13;11.02;;;3.95;;
44137;SDS011;29800;55.942;37.314;2023-04-25T08:40:40;13.82;;;4.30;;
44137;SDS011;29800;55.942;37.314;2023-04-25T08:43:15;12.10;;;4.30;;
44137;SDS011;29800;55.942;37.314;2023-04-25T08:45:45;11.07;;;4.00;;
44137;SDS011;29800;55.942;37.314;2023-04-25T08:48:32;10.20;;;4.20;;
44137;SDS011;29800;55.942;37.314;2023-04-25T08:51:01;13.25;;;3.65;;
44137;SDS011;29800;55.942;37.314;2023-04-25T08:53:30;13.70;;;4.72;;
44137;SDS011;29800;55.942;37.314;2023-04-25T08:56:00;18.42;;;4.57;;
44137;SDS011;29800;55.942;37.314;2023-04-25T08:58:33;15.90;;;6.13;;
44137;SDS011;29800;55.942;37.314;2023-04-25T09:01:00;28.95;;;10.20;;
44137;SDS011;29800;55.942;37.314;2023-04-25T09:03:30;23.02;;;8.70;;
44137;SDS011;29800;55.942;37.314;2023-04-25T09:05:57;19.90;;;6.72;;
44137;SDS011;29800;55.942;37.314;2023-04-25T09:08:24;11.77;;;4.20;;
44137;SDS011;29800;55.942;37.314;2023-04-25T09:10:50;16.17;;;4.00;;
44137;SDS011;29800;55.942;37.314;2023-04-25T09:13:23;13.77;;;4.18;;
44137;SDS011;29800;55.942;37.314;2023-04-25T09:16:08;9.50;;;4.43;;
44137;SDS011;29800;55.942;37.314;2023-04-25T09:18:44;12.88;;;4.22;;
44137;SDS011;29800;55.942;37.314;2023-04-25T09:21:13;9.35;;;3.60;;
44137;SDS011;29800;55.942;37.314;2023-04-25T09:23:41;7.88;;;3.53;;
44137;SDS011;29800;55.942;37.314;2023-04-25T09:26:16;11.32;;;3.72;;
44137;SDS011;29800;55.942;37.314;2023-04-25T09:28:44;7.47;;;3.38;;
44137;SDS011;29800;55.942;37.314;2023-04-25T09:31:21;11.93;;;4.22;;
44137;SDS011;29800;55.942;37.314;2023-04-25T09:33:58;6.43;;;3.28;;
44137;SDS011;29800;55.942;37.314;2023-04-25T09:36:29;9.18;;;3.63;;
44137;SDS011;29800;55.942;37.314;2023-04-25T09:39:19;9.13;;;3.50;;
44137;SDS011;29800;55.942;37.314;2023-04-25T09:42:02;10.63;;;3.53;;
44137;SDS011;29800;55.942;37.314;2023-04-25T09:44:30;7.97;;;3.72;;
44137;SDS011;29800;55.942;37.314;2023-04-25T09:46:57;11.18;;;3.42;;
44137;SDS011;29800;55.942;37.314;2023-04-25T09:49:26;13.55;;;4.13;;
44137;SDS011;29800;55.942;37.314;2023-04-25T09:52:01;9.65;;;3.70;;
44137;SDS011;29800;55.942;37.314;2023-04-25T09:54:34;10.13;;;3.78;;
44137;SDS011;29800;55.942;37.314;2023-04-25T09:57:24;9.60;;;4.00;;
44137;SDS011;29800;55.942;37.314;2023-04-25T09:59:53;10.50;;;3.75;;
44137;SDS011;29800;55.942;37.314;2023-04-25T10:02:22;9.48;;;4.00;;
44137;SDS011;29800;55.942;37.314;2023-04-25T10:04:54;9.77;;;4.15;;
44137;SDS011;29800;55.942;37.314;2023-04-25T10:07:30;7.85;;;3.70;;
44137;SDS011;29800;55.942;37.314;2023-04-25T10:09:58;8.75;;;3.83;;
44137;SDS011;29800;55.942;37.314;2023-04-25T10:12:30;12.77;;;3.85;;
44137;SDS011;29800;55.942;37.314;2023-04-25T10:14:57;6.80;;;3.42;;
44137;SDS011;29800;55.942;37.314;2023-04-25T10:17:25;8.38;;;3.30;;
44137;SDS011;29800;55.942;37.314;2023-04-25T10:19:54;5.70;;;3.60;;
44137;SDS011;29800;55.942;37.314;2023-04-25T10:22:23;10.95;;;3.50;;
44137;SDS011;29800;55.942;37.314;2023-04-25T10:24:56;10.40;;;3.70;;
44137;SDS011;29800;55.942;37.314;2023-04-25T10:27:23;6.05;;;3.20;;
44137;SDS011;29800;55.942;37.314;2023-04-25T10:30:00;7.65;;;3.10;;
44137;SDS011;29800;55.942;37.314;2023-04-25T10:32:33;10.38;;;3.45;;
44137;SDS011;29800;55.942;37.314;2023-04-25T10:35:09;9.57;;;3.70;;
44137;SDS011;29800;55.942;37.314;2023-04-25T10:37:59;8.93;;;3.78;;
44137;SDS011;29800;55.942;37.314;2023-04-25T10:40:29;10.15;;;3.22;;
44137;SDS011;29800;55.942;37.314;2023-04-25T10:42:55;13.32;;;4.35;;
44137;SDS011;29800;55.942;37.314;2023-04-25T10:45:58;11.20;;;3.90;;
44137;SDS011;29800;55.942;37.314;2023-04-25T10:48:26;8.68;;;3.60;;
44137;SDS011;29800;55.942;37.314;2023-04-25T10:51:09;17.90;;;5.40;;
44137;SDS011;29800;55.942;37.314;2023-04-25T10:53:37;11.55;;;3.55;;
44137;SDS011;29800;55.942;37.314;2023-04-25T10:56:10;20.77;;;6.30;;
44137;SDS011;29800;55.942;37.314;2023-04-25T10:58:49;12.25;;;3.75;;
44137;SDS011;29800;55.942;37.314;2023-04-25T11:01:20;10.95;;;4.45;;
44137;SDS011;29800;55.942;37.314;2023-04-25T11:03:56;20.05;;;5.93;;
44137;SDS011;29800;55.942;37.314;2023-04-25T11:06:29;8.77;;;3.65;;
44137;SDS011;29800;55.942;37.314;2023-04-25T11:09:11;22.50;;;4.40;;
44137;SDS011;29800;55.942;37.314;2023-04-25T11:11:41;9.52;;;4.00;;
44137;SDS011;29800;55.942;37.314;2023-04-25T11:14:07;7.93;;;3.70;;
44137;SDS011;29800;55.942;37.314;2023-04-25T11:16:34;18.33;;;6.25;;
44137;SDS011;29800;55.942;37.314;2023-04-25T11:19:01;7.75;;;4.20;;
44137;SDS011;29800;55.942;37.314;2023-04-25T11:21:28;13.32;;;3.88;;
44137;SDS011;29800;55.942;37.314;2023-04-25T11:23:57;9.63;;;3.85;;
44137;SDS011;29800;55.942;37.314;2023-04-25T11:26:24;6.38;;;3.17;;
44137;SDS011;29800;55.942;37.314;2023-04-25T11:28:51;12.32;;;2.97;;
44137;SDS011;29800;55.942;37.314;2023-04-25T11:31:20;6.65;;;3.00;;
44137;SDS011;29800;55.942;37.314;2023-04-25T11:33:47;7.97;;;2.63;;
44137;SDS011;29800;55.942;37.314;2023-04-25T11:36:13;5.78;;;2.30;;
44137;SDS011;29800;55.942;37.314;2023-04-25T11:38:39;10.13;;;2.72;;
44137;SDS011;29800;55.942;37.314;2023-04-25T11:41:06;7.63;;;3.05;;
44137;SDS011;29800;55.942;37.314;2023-04-25T11:43:33;10.93;;;3.30;;
44137;SDS011;29800;55.942;37.314;2023-04-25T11:45:59;9.30;;;3.30;;
44137;SDS011;29800;55.942;37.314;2023-04-25T11:48:26;8.07;;;3.15;;
44137;SDS011;29800;55.942;37.314;2023-04-25T11:50:53;12.73;;;3.10;;
44137;SDS011;29800;55.942;37.314;2023-04-25T11:53:20;10.45;;;3.33;;
44137;SDS011;29800;55.942;37.314;2023-04-25T11:55:47;8.80;;;2.78;;
44137;SDS011;29800;55.942;37.314;2023-04-25T11:58:13;6.20;;;2.85;;
44137;SDS011;29800;55.942;37.314;2023-04-25T12:00:41;8.32;;;2.90;;
44137;SDS011;29800;55.942;37.314;2023-04-25T12:03:08;8.32;;;3.28;;
44137;SDS011;29800;55.942;37.314;2023-04-25T12:05:35;6.95;;;3.20;;
44137;SDS011;29800;55.942;37.314;2023-04-25T12:08:10;5.57;;;3.03;;
44137;SDS011;29800;55.942;37.314;2023-04-25T12:10:41;9.75;;;3.58;;
44137;SDS011;29800;55.942;37.314;2023-04-25T12:13:22;5.15;;;3.20;;
44137;SDS011;29800;55.942;37.314;2023-04-25T12:15:55;8.77;;;3.10;;
44137;SDS011;29800;55.942;37.314;2023-04-25T12:18:25;4.97;;;2.95;;
44137;SDS011;29800;55.942;37.314;2023-04-25T12:20:53;7.70;;;2.90;;
44137;SDS011;29800;55.942;37.314;2023-04-25T12:23:26;9.85;;;3.97;;
44137;SDS011;29800;55.942;37.314;2023-04-25T12:25:53;8.30;;;3.15;;
44137;SDS011;29800;55.942;37.314;2023-04-25T12:28:21;10.07;;;3.30;;
44137;SDS011;29800;55.942;37.314;2023-04-25T12:30:56;8.30;;;3.22;;
44137;SDS011;29800;55.942;37.314;2023-04-25T12:33:24;10.75;;;3.33;;
44137;SDS011;29800;55.942;37.314;2023-04-25T12:35:52;18.33;;;5.22;;
44137;SDS011;29800;55.942;37.314;2023-04-25T12:38:23;6.53;;;3.03;;
44137;SDS011;29800;55.942;37.314;2023-04-25T12:40:56;5.97;;;2.50;;
44137;SDS011;29800;55.942;37.314;2023-04-25T12:43:27;9.77;;;3.00;;
44137;SDS011;29800;55.942;37.314;2023-04-25T12:45:54;8.45;;;2.28;;
44137;SDS011;29800;55.942;37.314;2023-04-25T12:48:21;10.15;;;2.45;;
44137;SDS011;29800;55.942;37.314;2023-04-25T12:50:49;12.75;;;3.30;;
44137;SDS011;29800;55.942;37.314;2023-04-25T12:53:17;4.47;;;2.45;;
44137;SDS011;29800;55.942;37.314;2023-04-25T12:55:45;8.52;;;2.67;;
44137;SDS011;29800;55.942;37.314;2023-04-25T12:58:13;5.80;;;2.70;;
44137;SDS011;29800;55.942;37.314;2023-04-25T13:00:43;7.15;;;2.85;;
44137;SDS011;29800;55.942;37.314;2023-04-25T13:03:10;6.07;;;2.30;;
44137;SDS011;29800;55.942;37.314;2023-04-25T13:05:38;7.85;;;2.58;;
44137;SDS011;29800;55.942;37.314;2023-04-25T13:08:05;8.98;;;2.58;;
44137;SDS011;29800;55.942;37.314;2023-04-25T13:10:31;11.32;;;3.13;;
44137;SDS011;29800;55.942;37.314;2023-04-25T13:12:59;7.68;;;2.58;;
44137;SDS011;29800;55.942;37.314;2023-04-25T13:15:26;7.00;;;2.50;;
44137;SDS011;29800;55.942;37.314;2023-04-25T13:17:53;7.13;;;2.78;;
44137;SDS011;29800;55.942;37.314;2023-04-25T13:20:19;7.13;;;2.70;;
44137;SDS011;29800;55.942;37.314;2023-04-25T13:22:47;7.50;;;2.67;;
44137;SDS011;29800;55.942;37.314;2023-04-25T13:25:14;6.70;;;2.65;;
44137;SDS011;29800;55.942;37.314;2023-04-25T13:27:41;7.80;;;2.65;;
44137;SDS011;29800;55.942;37.314;2023-04-25T13:30:09;6.88;;;2.92;;
44137;SDS011;29800;55.942;37.314;2023-04-25T13:32:36;7.00;;;2.67;;
44137;SDS011;29800;55.942;37.314;2023-04-25T13:35:04;5.47;;;2.03;;
44137;SDS011;29800;55.942;37.314;2023-04-25T13:37:31;9.55;;;2.30;;
44137;SDS011;29800;55.942;37.314;2023-04-25T13:40:02;5.15;;;2.38;;
44137;SDS011;29800;55.942;37.314;2023-04-25T13:42:32;6.07;;;2.15;;
44137;SDS011;29800;55.942;37.314;2023-04-25T13:44:58;5.65;;;2.13;;
44137;SDS011;29800;55.942;37.314;2023-04-25T13:47:25;6.10;;;2.40;;
44137;SDS011;29800;55.942;37.314;2023-04-25T13:49:52;5.45;;;2.00;;
44137;SDS011;29800;55.942;37.314;2023-04-25T13:52:18;6.78;;;2.35;;
44137;SDS011;29800;55.942;37.314;2023-04-25T13:54:45;9.20;;;2.65;;
44137;SDS011;29800;55.942;37.314;2023-04-25T13:57:11;7.65;;;2.78;;
44137;SDS011;29800;55.942;37.314;2023-04-25T13:59:38;7.13;;;2.80;;
44137;SDS011;29800;55.942;37.314;2023-04-25T14:02:06;5.95;;;2.70;;
44137;SDS011;29800;55.942;37.314;2023-04-25T14:04:33;4.60;;;2.20;;
44137;SDS011;29800;55.942;37.314;2023-04-25T14:06:59;5.32;;;2.65;;
44137;SDS011;29800;55.942;37.314;2023-04-25T14:09:26;8.73;;;2.72;;
44137;SDS011;29800;55.942;37.314;2023-04-25T14:11:53;6.63;;;2.53;;
44137;SDS011;29800;55.942;37.314;2023-04-25T14:14:20;10.00;;;2.65;;
44137;SDS011;29800;55.942;37.314;2023-04-25T14:16:47;7.70;;;2.72;;
44137;SDS011;29800;55.942;37.314;2023-04-25T14:19:14;5.78;;;2.22;;
44137;SDS011;29800;55.942;37.314;2023-04-25T14:21:41;10.23;;;2.67;;
44137;SDS011;29800;55.942;37.314;2023-04-25T14:24:08;6.35;;;2.83;;
44137;SDS011;29800;55.942;37.314;2023-04-25T14:26:35;5.93;;;2.60;;
44137;SDS011;29800;55.942;37.314;2023-04-25T14:29:01;5.50;;;2.67;;
44137;SDS011;29800;55.942;37.314;2023-04-25T14:31:29;10.00;;;2.60;;
44137;SDS011;29800;55.942;37.314;2023-04-25T14:33:55;8.07;;;2.53;;
44137;SDS011;29800;55.942;37.314;2023-04-25T14:36:21;5.97;;;2.35;;
44137;SDS011;29800;55.942;37.314;2023-04-25T14:38:47;5.93;;;2.72;;
44137;SDS011;29800;55.942;37.314;2023-04-25T14:41:14;9.57;;;3.03;;
44137;SDS011;29800;55.942;37.314;2023-04-25T14:43:41;5.15;;;2.75;;
44137;SDS011;29800;55.942;37.314;2023-04-25T14:46:07;7.97;;;2.80;;
44137;SDS011;29800;55.942;37.314;2023-04-25T14:48:34;12.52;;;2.90;;
44137;SDS011;29800;55.942;37.314;2023-04-25T14:51:01;5.90;;;3.03;;